This is the latest recevied weather packets stored in our database for station/object W8CWV-13. If no packets are shown the sender has not sent any weather packets the latest 10 day(s).
| Time | Temp. | Humidity | Pressure | Rain* | Wind** | Luminosity | Snow |
|---|---|---|---|---|---|---|---|
| 1778276427 | 21.11° C | 100% | 1019 hPa | - | - | - | - |
| 1778275849 | 20.56° C | 100% | 1019.1 hPa | - | - | - | - |
| 1778275282 | 20° C | 100% | 1019.4 hPa | - | - | - | - |
| 1778274701 | 20.56° C | 100% | 1019.4 hPa | - | - | - | - |
| 1778274125 | 20° C | 100% | 1019.5 hPa | - | - | - | - |
| 1778273551 | 20.56° C | 100% | 1019.5 hPa | - | - | - | - |
| 1778272981 | 20.56° C | 100% | 1019.4 hPa | - | - | - | - |
| 1778272408 | 20° C | 100% | 1019.7 hPa | - | - | - | - |
| 1778271831 | 20.56° C | 100% | 1019.5 hPa | - | - | - | - |
| 1778271262 | 22.22° C | 100% | 1019.5 hPa | - | - | - | - |
| 1778270690 | 23.33° C | 100% | 1019.4 hPa | - | - | - | - |
| 1778270118 | 23.89° C | 100% | 1019.2 hPa | - | - | - | - |
| 1778269538 | 25° C | 100% | 1018.9 hPa | - | - | - | - |
| 1778268965 | 22.78° C | 100% | 1019.6 hPa | - | - | - | - |
| 1778268392 | 22.78° C | 100% | 1019.6 hPa | - | - | - | - |
| 1778267815 | 22.78° C | 100% | 1019.8 hPa | - | - | - | - |
| 1778267237 | 23.33° C | 100% | 1019.9 hPa | - | - | - | - |
| 1778266666 | 22.78° C | 100% | 1020.1 hPa | - | - | - | - |
| 1778266098 | 24.44° C | 100% | 1020.1 hPa | - | - | - | - |
| 1778265529 | 26.11° C | 100% | 1019.8 hPa | - | - | - | - |
| 1778264951 | 26.11° C | 100% | 1020 hPa | - | - | - | - |
| 1778264379 | 25° C | 100% | 1020.1 hPa | - | - | - | - |
| 1778263802 | 23.89° C | 100% | 1020.3 hPa | - | - | - | - |
| 1778263231 | 22.78° C | 100% | 1020.5 hPa | - | - | - | - |
| 1778262653 | 21.67° C | 100% | 1020.8 hPa | - | - | - | - |
* Rain since midnight (hover to see other rain measurements)
** Current wind speed in m/s (hover to see current wind gust speed)